Time;durP1;ratioP1;P1;durP2;ratioP2;P2;SDS_P1;SDS_P2;PMS_P1;PMS_P2;Temp;Humidity;BMP_temperature;BMP_pressure;BME280_temperature;BME280_humidity;BME280_pressure;Samples;Min_cycle;Max_cycle;Signal;HPM_P1;HPM_P2
2023/01/11 00:01:07;;;;;;;;;;;18.40;88.50;;;;;;5096206;28;20274;-52
2023/01/11 00:03:33;;;;;;;;;;;18.40;88.30;;;;;;5096134;28;20022;-52
2023/01/11 00:05:58;;;;;;;;;;;18.40;88.60;;;;;;5095151;28;20273;-55
2023/01/11 00:08:27;;;;;;;;;;;18.40;88.70;;;;;;5096064;28;19912;-54
2023/01/11 00:10:53;;;;;;;;;;;18.30;88.80;;;;;;5096035;28;20024;-55
2023/01/11 00:13:19;;;;;;;;;;;18.30;88.70;;;;;;5077904;28;20358;-55
2023/01/11 00:15:44;;;;;;;;;;;18.30;88.90;;;;;;5094429;28;19909;-56
2023/01/11 00:18:10;;;;;;;;;;;18.30;89.00;;;;;;5095940;28;20263;-56
2023/01/11 00:20:39;;;;;;;;;;;18.20;89.00;;;;;;5095903;28;19908;-54
2023/01/11 00:23:04;;;;;;;;;;;18.20;89.00;;;;;;5095764;28;19934;-56
2023/01/11 00:25:30;;;;;;;;;;;18.20;89.10;;;;;;5094745;28;20438;-54
2023/01/11 00:27:55;;;;;;;;;;;18.20;89.10;;;;;;5095722;28;19916;-54
2023/01/11 00:30:21;;;;;;;;;;;18.20;89.20;;;;;;5095350;28;19909;-52
2023/01/11 00:32:46;;;;;;;;;;;18.20;89.30;;;;;;5095551;28;20355;-53
2023/01/11 00:35:12;;;;;;;;;;;18.20;89.30;;;;;;5095249;28;20364;-54
2023/01/11 00:37:38;;;;;;;;;;;18.20;89.00;;;;;;5076593;28;19912;-51
2023/01/11 00:40:04;;;;;;;;;;;18.30;89.20;;;;;;5095209;28;19912;-55
2023/01/11 00:48:03;;;;;;;;;;;18.30;88.90;;;;;;5094177;28;20266;-54
2023/01/11 00:50:33;;;;;;;;;;;18.40;89.10;;;;;;5095690;28;19968;-56
2023/01/11 00:52:58;;;;;;;;;;;18.40;88.90;;;;;;5095187;28;19908;-51
2023/01/11 00:55:24;;;;;;;;;;;18.40;88.70;;;;;;5095515;28;19908;-54
2023/01/11 00:57:50;;;;;;;;;;;18.40;88.80;;;;;;5093249;28;19935;-54
2023/01/11 01:00:16;;;;;;;;;;;18.40;88.70;;;;;;5094789;28;20370;-55
2023/01/11 01:02:42;;;;;;;;;;;18.40;88.80;;;;;;5092850;28;20052;-55
2023/01/11 01:05:07;;;;;;;;;;;18.40;88.60;;;;;;5095000;28;20312;-53
2023/01/11 01:07:33;;;;;;;;;;;18.40;88.60;;;;;;5094932;28;19999;-51
2023/01/11 01:09:58;;;;;;;;;;;18.30;88.50;;;;;;5094649;28;19908;-55
2023/01/11 01:15:08;;;;;;;;;;;18.30;89.00;;;;;;5094641;28;19931;-54
2023/01/11 01:17:33;;;;;;;;;;;18.30;88.80;;;;;;5076655;28;20351;-55
2023/01/11 01:19:59;;;;;;;;;;;18.30;88.90;;;;;;5094458;28;19908;-55
2023/01/11 01:22:24;;;;;;;;;;;18.30;89.00;;;;;;5093713;28;20305;-54
2023/01/11 01:24:50;;;;;;;;;;;18.20;88.90;;;;;;5094686;28;19912;-50
2023/01/11 01:27:16;;;;;;;;;;;18.20;88.90;;;;;;5093861;28;19991;-49
2023/01/11 01:29:42;;;;;;;;;;;18.30;89.00;;;;;;5094630;28;19953;-56
2023/01/11 01:32:08;;;;;;;;;;;18.30;89.10;;;;;;5075848;28;19908;-55
2023/01/11 01:34:36;;;;;;;;;;;18.30;89.40;;;;;;5093104;28;20350;-56
2023/01/11 01:37:04;;;;;;;;;;;18.40;89.60;;;;;;5094598;28;19920;-55
2023/01/11 01:39:30;;;;;;;;;;;18.40;89.30;;;;;;5094522;28;19908;-56
2023/01/11 01:41:56;;;;;;;;;;;18.50;88.90;;;;;;5094325;28;19912;-56
2023/01/11 01:44:40;;;;;;;;;;;18.60;88.90;;;;;;5093407;28;19916;-54
2023/01/11 01:47:05;;;;;;;;;;;18.60;88.60;;;;;;5093332;28;19912;-53
2023/01/11 01:49:31;;;;;;;;;;;18.60;88.50;;;;;;5094320;28;20010;-53
2023/01/11 01:51:57;;;;;;;;;;;18.60;88.50;;;;;;5076172;28;20339;-55
2023/01/11 01:54:25;;;;;;;;;;;18.60;88.70;;;;;;5094295;28;19912;-54
2023/01/11 01:56:53;;;;;;;;;;;18.50;88.80;;;;;;5093033;28;19947;-53
2023/01/11 01:59:20;;;;;;;;;;;18.50;88.90;;;;;;5076164;28;20306;-56
2023/01/11 02:01:46;;;;;;;;;;;18.50;88.80;;;;;;5094275;28;19912;-54
2023/01/11 02:04:27;;;;;;;;;;;18.50;89.10;;;;;;5093827;28;19916;-54
2023/01/11 02:06:56;;;;;;;;;;;18.40;88.80;;;;;;5093385;28;20341;-54
2023/01/11 02:09:27;;;;;;;;;;;18.40;88.90;;;;;;5094451;28;19912;-56
2023/01/11 02:11:54;;;;;;;;;;;18.40;89.20;;;;;;5093888;28;19961;-55
2023/01/11 02:14:20;;;;;;;;;;;18.30;89.20;;;;;;5094418;28;20323;-55
2023/01/11 02:16:46;;;;;;;;;;;18.30;89.20;;;;;;5092757;28;19958;-51
2023/01/11 02:19:30;;;;;;;;;;;18.30;89.40;;;;;;5094308;28;19950;-53
2023/01/11 02:22:12;;;;;;;;;;;18.30;89.10;;;;;;5093945;28;19908;-55
2023/01/11 02:24:40;;;;;;;;;;;18.30;88.90;;;;;;5093783;28;19912;-53
2023/01/11 02:27:25;;;;;;;;;;;18.30;88.70;;;;;;5092795;28;20332;-53
2023/01/11 02:29:53;;;;;;;;;;;18.30;89.20;;;;;;5093953;28;19920;-53
2023/01/11 02:32:27;;;;;;;;;;;18.30;89.20;;;;;;5094269;28;20400;-52
2023/01/11 02:35:09;;;;;;;;;;;18.30;89.20;;;;;;5075291;28;19908;-53
2023/01/11 02:37:45;;;;;;;;;;;18.30;89.20;;;;;;5093538;28;20499;-53
2023/01/11 02:40:49;;;;;;;;;;;18.30;89.30;;;;;;5097849;28;19977;-56
2023/01/11 02:46:17;;;;;;;;;;;18.40;89.20;;;;;;5030768;28;19971;-55
2023/01/11 02:48:48;;;;;;;;;;;18.40;88.90;;;;;;5055193;28;20317;-55
2023/01/11 02:51:21;;;;;;;;;;;18.50;88.90;;;;;;5077143;28;20385;-52
2023/01/11 02:53:59;;;;;;;;;;;18.50;88.60;;;;;;5077276;28;20363;-54
2023/01/11 02:56:26;;;;;;;;;;;18.60;88.40;;;;;;5082579;28;19959;-52
2023/01/11 02:58:53;;;;;;;;;;;18.60;88.40;;;;;;5097449;28;19908;-54
2023/01/11 03:01:21;;;;;;;;;;;18.60;88.40;;;;;;5097215;28;19931;-52
2023/01/11 03:03:50;;;;;;;;;;;18.50;88.60;;;;;;5097269;28;19971;-54
2023/01/11 03:06:19;;;;;;;;;;;18.50;88.50;;;;;;5096518;28;19916;-55
2023/01/11 03:08:53;;;;;;;;;;;18.50;88.20;;;;;;5095904;28;19965;-54
2023/01/11 03:14:29;;;;;;;;;;;18.50;89.10;;;;;;5091972;28;19938;-54
2023/01/11 03:17:13;;;;;;;;;;;18.40;88.60;;;;;;5096326;28;20275;-53
2023/01/11 03:19:43;;;;;;;;;;;18.40;88.70;;;;;;5097048;28;20236;-55
2023/01/11 03:22:17;;;;;;;;;;;18.40;88.50;;;;;;5095008;28;20028;-56
2023/01/11 03:24:47;;;;;;;;;;;18.40;88.90;;;;;;5096614;28;19920;-55
2023/01/11 03:27:28;;;;;;;;;;;18.30;88.80;;;;;;5096307;28;19912;-55
2023/01/11 03:30:02;;;;;;;;;;;18.30;89.10;;;;;;5092947;28;19912;-53
2023/01/11 03:32:46;;;;;;;;;;;18.30;89.10;;;;;;5093690;28;19946;-52
2023/01/11 03:35:16;;;;;;;;;;;18.30;89.20;;;;;;5090475;28;19963;-55
2023/01/11 03:37:42;;;;;;;;;;;18.30;89.40;;;;;;5095936;28;20312;-56
2023/01/11 03:40:07;;;;;;;;;;;18.30;89.50;;;;;;5093829;28;19991;-56
2023/01/11 03:42:34;;;;;;;;;;;18.40;89.80;;;;;;5094782;28;20278;-55
2023/01/11 03:45:01;;;;;;;;;;;18.40;89.80;;;;;;5095551;28;19931;-55
2023/01/11 03:47:28;;;;;;;;;;;18.40;89.80;;;;;;5096285;28;19927;-53
2023/01/11 03:49:57;;;;;;;;;;;18.50;89.70;;;;;;5095547;28;20006;-51
2023/01/11 03:52:27;;;;;;;;;;;18.50;89.20;;;;;;5096297;28;19919;-57
2023/01/11 03:54:53;;;;;;;;;;;18.60;89.70;;;;;;5096381;28;19912;-55
2023/01/11 03:57:20;;;;;;;;;;;18.60;89.00;;;;;;5078340;28;19915;-55
2023/01/11 03:59:45;;;;;;;;;;;18.60;89.10;;;;;;5096454;28;20317;-55
2023/01/11 04:02:18;;;;;;;;;;;18.60;88.80;;;;;;5094276;28;19926;-56
2023/01/11 04:04:43;;;;;;;;;;;18.50;88.80;;;;;;5095957;28;19912;-53
2023/01/11 04:07:09;;;;;;;;;;;18.50;88.80;;;;;;5095818;28;20270;-52
2023/01/11 04:09:34;;;;;;;;;;;18.50;89.00;;;;;;5096035;28;19916;-55
2023/01/11 04:12:00;;;;;;;;;;;18.40;88.80;;;;;;5094947;28;20049;-56
2023/01/11 04:14:25;;;;;;;;;;;18.40;89.00;;;;;;5096296;28;19931;-56
2023/01/11 04:16:51;;;;;;;;;;;18.40;89.10;;;;;;5095363;28;20318;-56
2023/01/11 04:19:16;;;;;;;;;;;18.40;89.40;;;;;;5094726;28;19908;-57
2023/01/11 04:21:42;;;;;;;;;;;18.40;89.40;;;;;;5094951;28;19951;-57
2023/01/11 04:24:07;;;;;;;;;;;18.40;89.60;;;;;;5077606;28;19912;-57
2023/01/11 04:26:32;;;;;;;;;;;18.30;89.70;;;;;;5095811;28;19933;-56
2023/01/11 04:28:58;;;;;;;;;;;18.30;89.50;;;;;;5095814;28;19908;-57
2023/01/11 04:31:24;;;;;;;;;;;18.30;89.50;;;;;;5095686;28;20002;-56
2023/01/11 04:33:49;;;;;;;;;;;18.30;89.70;;;;;;5094827;28;19920;-56
2023/01/11 04:36:14;;;;;;;;;;;18.30;89.70;;;;;;5094258;28;19920;-56
2023/01/11 04:38:40;;;;;;;;;;;18.30;89.70;;;;;;5095577;28;20020;-57
2023/01/11 04:43:52;;;;;;;;;;;18.30;89.70;;;;;;5095139;28;20016;-55
2023/01/11 04:46:17;;;;;;;;;;;18.40;89.80;;;;;;5094288;28;19916;-53
2023/01/11 04:48:43;;;;;;;;;;;18.40;89.40;;;;;;5077212;28;20408;-56
2023/01/11 04:51:08;;;;;;;;;;;18.40;89.80;;;;;;5095033;28;19908;-55
2023/01/11 04:53:34;;;;;;;;;;;18.50;89.90;;;;;;5095316;28;20283;-51
2023/01/11 04:56:00;;;;;;;;;;;18.50;89.90;;;;;;5093995;28;19997;-55
2023/01/11 04:58:27;;;;;;;;;;;18.50;89.60;;;;;;5094561;28;20002;-55
2023/01/11 05:00:52;;;;;;;;;;;18.50;89.90;;;;;;5094747;28;20359;-55
2023/01/11 05:03:18;;;;;;;;;;;18.40;89.40;;;;;;5093920;28;19946;-56
2023/01/11 05:05:43;;;;;;;;;;;18.40;89.80;;;;;;5095300;28;19916;-56
2023/01/11 05:08:08;;;;;;;;;;;18.40;89.40;;;;;;5094594;28;19908;-55
2023/01/11 05:10:34;;;;;;;;;;;18.40;89.80;;;;;;5094707;28;19950;-54
2023/01/11 05:12:59;;;;;;;;;;;18.40;89.70;;;;;;5093762;28;20359;-56
2023/01/11 05:15:25;;;;;;;;;;;18.40;89.70;;;;;;5094435;28;19943;-55
2023/01/11 05:17:50;;;;;;;;;;;18.30;89.80;;;;;;5076659;28;19916;-52
2023/01/11 05:20:16;;;;;;;;;;;18.30;89.90;;;;;;5094347;28;19957;-54
2023/01/11 05:22:41;;;;;;;;;;;18.30;89.90;;;;;;5093374;28;19922;-56
2023/01/11 05:25:07;;;;;;;;;;;18.30;89.80;;;;;;5094929;28;19912;-51
2023/01/11 05:27:32;;;;;;;;;;;18.30;89.80;;;;;;5094301;28;20400;-55
2023/01/11 05:29:58;;;;;;;;;;;18.30;90.00;;;;;;5094492;28;20279;-55
2023/01/11 05:32:23;;;;;;;;;;;18.20;90.00;;;;;;5093799;28;19912;-56
2023/01/11 05:34:49;;;;;;;;;;;18.20;90.10;;;;;;5093934;28;20386;-56
2023/01/11 05:37:14;;;;;;;;;;;18.30;90.10;;;;;;5094192;28;20244;-56
2023/01/11 05:39:40;;;;;;;;;;;18.30;90.00;;;;;;5076118;28;19957;-55
2023/01/11 05:42:05;;;;;;;;;;;18.30;90.00;;;;;;5093951;28;20015;-52
2023/01/11 05:47:15;;;;;;;;;;;18.40;90.10;;;;;;5094011;28;19916;-55
2023/01/11 05:49:40;;;;;;;;;;;18.40;90.00;;;;;;5094178;28;20279;-55
2023/01/11 05:52:06;;;;;;;;;;;18.40;90.00;;;;;;5093943;28;19912;-55
2023/01/11 05:54:31;;;;;;;;;;;18.40;90.00;;;;;;5092788;28;19919;-56
2023/01/11 05:56:57;;;;;;;;;;;18.40;90.00;;;;;;5094203;28;20316;-57
2023/01/11 05:59:22;;;;;;;;;;;18.40;90.00;;;;;;5093968;28;19912;-55
2023/01/11 06:01:48;;;;;;;;;;;18.40;90.10;;;;;;5093913;28;19941;-55
2023/01/11 06:04:14;;;;;;;;;;;18.30;90.10;;;;;;5092143;28;20309;-57
2023/01/11 06:06:39;;;;;;;;;;;18.30;90.10;;;;;;5092800;28;19923;-57
2023/01/11 06:09:05;;;;;;;;;;;18.30;90.10;;;;;;5093977;28;19953;-56
2023/01/11 06:11:30;;;;;;;;;;;18.30;90.20;;;;;;5075845;28;19914;-56
2023/01/11 06:13:56;;;;;;;;;;;18.30;90.10;;;;;;5096205;28;20251;-55
2023/01/11 06:16:22;;;;;;;;;;;18.20;90.30;;;;;;5097722;28;19969;-54
2023/01/11 06:18:49;;;;;;;;;;;18.20;90.30;;;;;;5079756;28;19908;-54
2023/01/11 06:21:15;;;;;;;;;;;18.20;90.20;;;;;;5098137;28;20266;-53
2023/01/11 06:23:42;;;;;;;;;;;18.20;90.10;;;;;;5079828;28;19919;-56
2023/01/11 06:26:09;;;;;;;;;;;18.20;90.10;;;;;;5096592;28;19916;-57
2023/01/11 06:28:34;;;;;;;;;;;18.20;90.10;;;;;;5097755;28;19908;-56
2023/01/11 06:31:00;;;;;;;;;;;18.20;90.00;;;;;;5097802;28;19925;-56
2023/01/11 06:33:26;;;;;;;;;;;18.20;90.00;;;;;;5097392;28;19916;-56
2023/01/11 06:35:52;;;;;;;;;;;18.20;90.00;;;;;;5077937;28;20010;-57
2023/01/11 06:38:18;;;;;;;;;;;18.20;90.00;;;;;;5079375;28;20010;-57
2023/01/11 06:40:50;;;;;;;;;;;18.20;89.80;;;;;;5096743;28;19919;-56
2023/01/11 06:43:16;;;;;;;;;;;18.20;89.90;;;;;;5097591;28;19933;-56
2023/01/11 06:45:42;;;;;;;;;;;18.20;89.80;;;;;;5096428;28;19916;-56
2023/01/11 06:48:08;;;;;;;;;;;18.30;89.90;;;;;;5097849;28;19908;-54
2023/01/11 06:50:33;;;;;;;;;;;18.30;89.80;;;;;;5097276;28;19915;-56
2023/01/11 06:53:00;;;;;;;;;;;18.30;90.00;;;;;;5095707;28;20268;-54
2023/01/11 06:55:27;;;;;;;;;;;18.40;90.00;;;;;;5096998;28;19970;-56
2023/01/11 06:57:52;;;;;;;;;;;18.40;90.10;;;;;;5097250;28;19908;-53
2023/01/11 07:00:18;;;;;;;;;;;18.40;89.80;;;;;;5097017;28;19977;-54
2023/01/11 07:02:44;;;;;;;;;;;18.40;89.90;;;;;;5096635;28;19991;-55
2023/01/11 07:05:10;;;;;;;;;;;18.40;89.60;;;;;;5095640;28;20007;-58
2023/01/11 07:07:36;;;;;;;;;;;18.40;89.70;;;;;;5096800;28;19943;-56
2023/01/11 07:10:02;;;;;;;;;;;18.40;90.00;;;;;;5097015;28;19908;-57
2023/01/11 07:12:27;;;;;;;;;;;18.40;89.90;;;;;;5096888;28;19912;-56
2023/01/11 07:14:53;;;;;;;;;;;18.40;90.00;;;;;;5095791;28;19919;-54
2023/01/11 07:17:18;;;;;;;;;;;18.30;89.70;;;;;;5078417;28;20368;-57
2023/01/11 07:19:43;;;;;;;;;;;18.30;90.00;;;;;;5096716;28;19914;-55
2023/01/11 07:22:09;;;;;;;;;;;18.30;90.00;;;;;;5094246;28;19908;-57
2023/01/11 07:24:34;;;;;;;;;;;18.30;89.60;;;;;;5074206;28;20354;-55
2023/01/11 07:27:01;;;;;;;;;;;18.40;89.80;;;;;;5096519;28;19930;-55
2023/01/11 07:29:27;;;;;;;;;;;18.40;90.00;;;;;;5094430;28;20617;-55
2023/01/11 07:31:53;;;;;;;;;;;18.30;88.30;;;;;;5091635;28;20309;-57
2023/01/11 07:34:19;;;;;;;;;;;18.30;88.20;;;;;;5103397;28;19912;-55
2023/01/11 07:36:44;;;;;;;;;;;18.30;88.80;;;;;;5090201;28;19928;-55
2023/01/11 07:39:09;;;;;;;;;;;18.30;88.50;;;;;;5093128;28;19923;-56
2023/01/11 07:44:19;;;;;;;;;;;18.50;89.20;;;;;;5083578;28;19931;-57
2023/01/11 07:46:45;;;;;;;;;;;18.60;89.10;;;;;;5091250;28;20305;-54
2023/01/11 07:49:10;;;;;;;;;;;18.70;89.00;;;;;;5095171;28;19918;-54
2023/01/11 07:51:35;;;;;;;;;;;18.70;88.90;;;;;;5095886;28;20407;-54
2023/01/11 07:54:02;;;;;;;;;;;18.70;88.80;;;;;;5096255;28;20001;-56
2023/01/11 07:56:31;;;;;;;;;;;18.70;88.80;;;;;;5095570;28;19920;-51
2023/01/11 07:58:56;;;;;;;;;;;18.70;88.80;;;;;;5094478;28;20015;-53
2023/01/11 08:01:22;;;;;;;;;;;18.60;88.90;;;;;;5096071;28;19957;-55
2023/01/11 08:03:48;;;;;;;;;;;18.60;88.90;;;;;;5096048;28;19912;-57
2023/01/11 08:06:13;;;;;;;;;;;18.50;89.10;;;;;;5095981;28;20382;-56
2023/01/11 08:08:42;;;;;;;;;;;18.50;89.00;;;;;;5095184;28;19912;-56
2023/01/11 08:16:47;;;;;;;;;;;18.30;89.20;;;;;;5095814;28;19914;-55
2023/01/11 08:19:12;;;;;;;;;;;18.30;89.20;;;;;;5095042;28;19912;-56
2023/01/11 08:21:38;;;;;;;;;;;18.30;89.30;;;;;;5095861;28;19911;-54
2023/01/11 08:24:03;;;;;;;;;;;18.20;89.30;;;;;;5095698;28;20101;-56
2023/01/11 08:26:29;;;;;;;;;;;18.20;89.40;;;;;;5095889;28;20038;-56
2023/01/11 08:28:55;;;;;;;;;;;18.20;89.50;;;;;;5076355;28;20337;-54
2023/01/11 08:31:20;;;;;;;;;;;18.20;89.40;;;;;;5077289;28;19908;-56
2023/01/11 08:33:47;;;;;;;;;;;18.30;89.40;;;;;;5095452;28;19912;-51
2023/01/11 08:36:12;;;;;;;;;;;18.30;89.20;;;;;;5094616;28;19920;-56
2023/01/11 08:38:38;;;;;;;;;;;18.40;89.00;;;;;;5095118;28;19912;-53
2023/01/11 08:41:09;;;;;;;;;;;18.40;88.80;;;;;;5094353;28;19916;-54
2023/01/11 08:43:38;;;;;;;;;;;18.50;88.60;;;;;;5095208;28;19912;-55
2023/01/11 08:46:03;;;;;;;;;;;18.50;88.50;;;;;;5095674;28;19937;-54
2023/01/11 08:48:29;;;;;;;;;;;18.50;88.30;;;;;;5093926;28;19999;-54
2023/01/11 08:50:54;;;;;;;;;;;18.50;88.30;;;;;;5095433;28;19915;-56
2023/01/11 08:53:20;;;;;;;;;;;18.50;88.30;;;;;;5095037;28;20349;-55
2023/01/11 08:55:48;;;;;;;;;;;18.50;88.30;;;;;;5095283;28;19908;-55
2023/01/11 08:58:14;;;;;;;;;;;18.50;88.40;;;;;;5094376;28;19912;-54
2023/01/11 09:00:39;;;;;;;;;;;18.40;88.30;;;;;;5095070;28;19923;-55
2023/01/11 09:03:05;;;;;;;;;;;18.40;88.50;;;;;;5093575;28;19916;-56
2023/01/11 09:05:30;;;;;;;;;;;18.30;88.60;;;;;;5094938;28;19912;-56
2023/01/11 09:07:55;;;;;;;;;;;18.30;88.70;;;;;;5093852;28;19915;-54
2023/01/11 09:10:25;;;;;;;;;;;18.30;89.30;;;;;;5093573;28;19908;-57
2023/01/11 09:12:51;;;;;;;;;;;18.30;89.10;;;;;;5095182;28;19962;-55
2023/01/11 09:15:17;;;;;;;;;;;18.20;88.80;;;;;;5094719;28;20389;-55
2023/01/11 09:17:42;;;;;;;;;;;18.20;88.90;;;;;;5075948;28;19955;-56
2023/01/11 09:20:08;;;;;;;;;;;18.30;88.90;;;;;;5093936;28;20309;-56
2023/01/11 09:22:34;;;;;;;;;;;18.30;88.80;;;;;;5094425;28;20244;-55
2023/01/11 09:24:59;;;;;;;;;;;18.30;88.80;;;;;;5094564;28;20011;-56
2023/01/11 09:27:25;;;;;;;;;;;18.40;88.60;;;;;;5093711;28;19912;-55
2023/01/11 09:29:50;;;;;;;;;;;18.40;88.40;;;;;;5093392;28;19956;-55
2023/01/11 09:32:16;;;;;;;;;;;18.50;88.30;;;;;;5094172;28;20348;-54
2023/01/11 09:34:42;;;;;;;;;;;18.50;88.20;;;;;;5076127;28;19908;-57
2023/01/11 09:37:07;;;;;;;;;;;18.50;88.10;;;;;;5075913;28;19961;-56
2023/01/11 09:39:33;;;;;;;;;;;18.50;88.00;;;;;;5093708;28;19912;-54
2023/01/11 09:42:05;;;;;;;;;;;18.50;88.10;;;;;;5094423;28;20358;-55
2023/01/11 09:44:33;;;;;;;;;;;18.40;88.10;;;;;;5094399;28;20012;-54
2023/01/11 09:47:11;;;;;;;;;;;18.40;88.30;;;;;;5092242;28;19912;-55
2023/01/11 09:49:39;;;;;;;;;;;18.40;88.40;;;;;;5094639;28;19912;-54
2023/01/11 09:52:23;;;;;;;;;;;18.30;88.40;;;;;;5094032;28;19915;-54
2023/01/11 09:54:49;;;;;;;;;;;18.30;88.50;;;;;;5094240;28;19998;-55
2023/01/11 09:57:22;;;;;;;;;;;18.20;88.60;;;;;;5092750;28;20329;-57
2023/01/11 10:00:09;;;;;;;;;;;18.20;88.60;;;;;;5094162;28;20341;-54
2023/01/11 10:02:34;;;;;;;;;;;18.20;88.70;;;;;;5068233;28;19923;-55
2023/01/11 10:05:20;;;;;;;;;;;18.20;88.70;;;;;;5093811;28;19912;-55
2023/01/11 10:08:04;;;;;;;;;;;18.20;88.70;;;;;;5093948;28;19923;-53
2023/01/11 10:10:50;;;;;;;;;;;18.30;88.50;;;;;;5093998;28;19916;-54
2023/01/11 10:13:21;;;;;;;;;;;18.50;88.10;;;;;;5073862;28;19939;-53
2023/01/11 10:15:59;;;;;;;;;;;18.70;87.40;;;;;;5073344;28;19923;-55
2023/01/11 10:18:45;;;;;;;;;;;18.80;87.00;;;;;;5073115;28;20363;-54
2023/01/11 10:21:14;;;;;;;;;;;18.90;86.80;;;;;;5075859;28;19916;-55
2023/01/11 10:23:40;;;;;;;;;;;18.90;86.70;;;;;;5075687;28;19920;-55
2023/01/11 10:26:16;;;;;;;;;;;18.90;86.80;;;;;;5093540;28;20394;-56
2023/01/11 10:29:06;;;;;;;;;;;18.80;86.80;;;;;;5093821;28;19939;-56
2023/01/11 10:31:57;;;;;;;;;;;18.80;87.00;;;;;;5074826;28;19915;-56
2023/01/11 10:34:40;;;;;;;;;;;18.70;87.10;;;;;;5093496;28;20488;-57
2023/01/11 10:37:27;;;;;;;;;;;18.70;87.30;;;;;;5092975;28;19924;-54
2023/01/11 10:40:17;;;;;;;;;;;18.60;87.60;;;;;;5078005;28;20269;-56
2023/01/11 10:42:55;;;;;;;;;;;18.50;87.60;;;;;;5093524;28;19951;-54
2023/01/11 10:45:24;;;;;;;;;;;18.50;87.80;;;;;;5093536;28;20355;-57
2023/01/11 10:47:54;;;;;;;;;;;18.40;87.90;;;;;;5092599;28;19913;-57
2023/01/11 10:50:37;;;;;;;;;;;18.40;88.10;;;;;;5093484;28;19909;-55
2023/01/11 10:53:06;;;;;;;;;;;18.30;88.20;;;;;;5093295;28;19953;-54
2023/01/11 10:55:38;;;;;;;;;;;18.30;88.40;;;;;;5075282;28;19908;-56
2023/01/11 10:58:22;;;;;;;;;;;18.20;88.40;;;;;;5092833;28;20010;-56
2023/01/11 11:01:15;;;;;;;;;;;18.20;88.50;;;;;;5097654;28;20007;-54
2023/01/11 11:03:41;;;;;;;;;;;18.20;88.60;;;;;;5069839;28;19916;-56
2023/01/11 11:06:12;;;;;;;;;;;18.20;88.60;;;;;;5096860;28;19962;-58
2023/01/11 11:08:56;;;;;;;;;;;18.20;88.60;;;;;;5095435;28;19916;-56
2023/01/11 11:11:34;;;;;;;;;;;18.30;88.50;;;;;;5096997;28;19947;-55
2023/01/11 11:14:09;;;;;;;;;;;18.30;88.30;;;;;;5097365;28;20363;-57
2023/01/11 11:16:53;;;;;;;;;;;18.40;88.10;;;;;;5097327;28;19908;-55
2023/01/11 11:19:21;;;;;;;;;;;18.40;87.90;;;;;;5077688;28;19912;-56
2023/01/11 11:21:47;;;;;;;;;;;18.50;87.90;;;;;;5096432;28;19919;-55
2023/01/11 11:24:21;;;;;;;;;;;18.50;87.80;;;;;;5096079;28;19916;-55
2023/01/11 11:26:50;;;;;;;;;;;18.50;87.80;;;;;;5097013;28;19916;-54
2023/01/11 11:29:20;;;;;;;;;;;18.50;87.90;;;;;;5096431;28;19908;-56
2023/01/11 11:31:46;;;;;;;;;;;18.40;87.90;;;;;;5096590;28;19963;-56
2023/01/11 11:34:19;;;;;;;;;;;18.40;88.00;;;;;;5095124;28;19916;-55
2023/01/11 11:36:49;;;;;;;;;;;18.40;88.00;;;;;;5096483;28;19927;-56
2023/01/11 11:39:19;;;;;;;;;;;18.30;88.10;;;;;;5096410;28;19908;-55
2023/01/11 11:41:49;;;;;;;;;;;18.30;88.20;;;;;;5096520;28;19908;-54
2023/01/11 11:44:25;;;;;;;;;;;18.30;88.40;;;;;;5094932;28;19976;-57
2023/01/11 11:47:00;;;;;;;;;;;18.30;88.50;;;;;;5096008;28;20298;-56
2023/01/11 11:49:27;;;;;;;;;;;18.20;88.50;;;;;;5096274;28;19916;-54
2023/01/11 11:51:52;;;;;;;;;;;18.20;88.50;;;;;;5096419;28;19915;-55
2023/01/11 11:54:27;;;;;;;;;;;18.30;88.50;;;;;;5094914;28;19912;-53
2023/01/11 11:56:54;;;;;;;;;;;18.30;88.50;;;;;;5096119;28;20270;-53
2023/01/11 11:59:20;;;;;;;;;;;18.30;88.40;;;;;;5078079;28;19908;-54
2023/01/11 12:01:48;;;;;;;;;;;18.30;88.40;;;;;;5095774;28;19937;-55
2023/01/11 12:04:15;;;;;;;;;;;18.30;88.20;;;;;;5095004;28;19920;-55
2023/01/11 12:06:41;;;;;;;;;;;18.30;88.20;;;;;;5094875;28;20298;-53
2023/01/11 12:09:11;;;;;;;;;;;18.30;88.10;;;;;;5095483;28;19912;-55
2023/01/11 12:11:40;;;;;;;;;;;18.40;88.10;;;;;;5095160;28;19919;-53
2023/01/11 12:14:09;;;;;;;;;;;18.40;88.60;;;;;;5095664;28;19909;-54
2023/01/11 12:16:37;;;;;;;;;;;18.30;88.00;;;;;;5094487;28;20351;-55
2023/01/11 12:19:22;;;;;;;;;;;18.30;88.00;;;;;;5095430;28;20416;-54
2023/01/11 12:21:49;;;;;;;;;;;18.30;88.10;;;;;;5095133;28;20362;-55
2023/01/11 12:24:17;;;;;;;;;;;18.30;88.20;;;;;;5095417;28;19912;-54
2023/01/11 12:26:49;;;;;;;;;;;18.30;88.20;;;;;;5094811;28;19944;-54
2023/01/11 12:29:26;;;;;;;;;;;18.30;88.30;;;;;;5095148;28;20378;-56
2023/01/11 12:31:51;;;;;;;;;;;18.30;88.20;;;;;;5095541;28;20355;-54
2023/01/11 12:34:22;;;;;;;;;;;18.30;88.20;;;;;;5095429;28;19912;-54
2023/01/11 12:36:53;;;;;;;;;;;18.30;88.30;;;;;;5094553;28;19978;-53
2023/01/11 12:39:23;;;;;;;;;;;18.20;88.30;;;;;;5095220;28;20354;-54
2023/01/11 12:42:02;;;;;;;;;;;18.20;88.30;;;;;;5095582;28;19915;-56
2023/01/11 12:44:37;;;;;;;;;;;18.30;88.40;;;;;;5093950;28;19970;-54
2023/01/11 12:47:03;;;;;;;;;;;18.20;88.30;;;;;;5095100;28;19912;-56
2023/01/11 12:49:42;;;;;;;;;;;18.20;88.30;;;;;;5095015;28;19908;-57
2023/01/11 12:52:14;;;;;;;;;;;18.20;88.30;;;;;;5095109;28;19908;-57
2023/01/11 12:54:52;;;;;;;;;;;18.20;88.20;;;;;;5076558;28;19937;-56
2023/01/11 12:57:22;;;;;;;;;;;18.30;88.30;;;;;;5094900;28;20339;-55
2023/01/11 13:00:10;;;;;;;;;;;18.20;88.20;;;;;;5094774;28;19908;-55
2023/01/11 13:02:54;;;;;;;;;;;18.20;88.20;;;;;;5076732;28;19955;-55
2023/01/11 13:05:29;;;;;;;;;;;18.20;88.30;;;;;;5094319;28;19961;-55
2023/01/11 13:07:54;;;;;;;;;;;18.20;88.30;;;;;;5093635;28;19918;-56
2023/01/11 13:10:27;;;;;;;;;;;18.20;88.80;;;;;;5094919;28;19908;-56
2023/01/11 13:12:57;;;;;;;;;;;18.20;88.30;;;;;;5094614;28;19931;-57
2023/01/11 13:15:40;;;;;;;;;;;18.20;88.20;;;;;;5093349;28;19919;-53
2023/01/11 13:18:19;;;;;;;;;;;18.20;88.20;;;;;;5094903;28;20258;-57
2023/01/11 13:21:04;;;;;;;;;;;18.20;88.20;;;;;;5094134;28;19912;-57
2023/01/11 13:23:32;;;;;;;;;;;18.20;88.20;;;;;;5094107;28;19912;-56
2023/01/11 13:26:06;;;;;;;;;;;18.20;88.20;;;;;;5093181;28;19916;-55
2023/01/11 13:28:37;;;;;;;;;;;18.20;88.20;;;;;;5076223;28;19908;-56
2023/01/11 13:31:05;;;;;;;;;;;18.20;88.20;;;;;;5092434;28;20002;-54
2023/01/11 13:33:31;;;;;;;;;;;18.20;88.20;;;;;;5093263;28;20000;-56
2023/01/11 13:36:04;;;;;;;;;;;18.20;88.20;;;;;;5075207;28;19931;-57
2023/01/11 13:38:29;;;;;;;;;;;18.20;88.10;;;;;;5094044;28;19951;-56
2023/01/11 13:40:57;;;;;;;;;;;18.20;88.10;;;;;;5094185;28;19926;-56
2023/01/11 13:43:36;;;;;;;;;;;18.20;88.10;;;;;;5093314;28;19912;-56
2023/01/11 13:46:09;;;;;;;;;;;18.20;88.10;;;;;;5056032;28;20347;-55
2023/01/11 13:48:41;;;;;;;;;;;18.20;88.10;;;;;;5093993;28;19965;-56
2023/01/11 13:51:26;;;;;;;;;;;18.30;88.10;;;;;;5094338;28;20379;-56
2023/01/11 13:54:11;;;;;;;;;;;18.30;88.10;;;;;;5093999;28;20391;-55
2023/01/11 13:56:41;;;;;;;;;;;18.20;88.10;;;;;;5074646;28;19912;-56
2023/01/11 13:59:15;;;;;;;;;;;18.20;88.10;;;;;;5093792;28;19961;-55
2023/01/11 14:01:50;;;;;;;;;;;18.20;88.10;;;;;;5092449;28;19908;-56
2023/01/11 14:04:20;;;;;;;;;;;18.20;88.10;;;;;;5092843;28;19916;-56
2023/01/11 14:07:08;;;;;;;;;;;18.20;88.20;;;;;;5092553;28;19919;-56
2023/01/11 14:09:37;;;;;;;;;;;18.20;88.30;;;;;;5093912;28;19919;-56
2023/01/11 14:12:08;;;;;;;;;;;18.10;88.30;;;;;;5093652;28;19954;-57
2023/01/11 14:14:34;;;;;;;;;;;18.10;88.30;;;;;;5093686;28;19928;-56
2023/01/11 14:17:03;;;;;;;;;;;18.10;88.40;;;;;;5093223;28;19908;-55
2023/01/11 14:19:47;;;;;;;;;;;18.10;88.40;;;;;;5093700;28;19937;-54
2023/01/11 14:22:36;;;;;;;;;;;18.10;88.30;;;;;;5093396;28;20370;-53
2023/01/11 14:25:21;;;;;;;;;;;18.20;88.20;;;;;;5093525;28;19920;-56
2023/01/11 14:27:47;;;;;;;;;;;18.20;87.90;;;;;;5092584;28;19934;-55
2023/01/11 14:30:31;;;;;;;;;;;18.30;87.80;;;;;;5093274;28;20343;-54
2023/01/11 14:33:18;;;;;;;;;;;18.40;87.60;;;;;;5089926;28;20227;-53
2023/01/11 14:35:46;;;;;;;;;;;18.40;87.40;;;;;;5078519;28;20332;-56
2023/01/11 14:38:47;;;;;;;;;;;18.40;87.50;;;;;;5097412;28;19908;-55
2023/01/11 14:41:31;;;;;;;;;;;18.40;87.60;;;;;;5034786;28;20007;-55
2023/01/11 14:44:09;;;;;;;;;;;18.30;87.50;;;;;;5072545;28;19927;-53
2023/01/11 14:46:49;;;;;;;;;;;18.30;87.70;;;;;;5079461;28;20270;-56
2023/01/11 14:49:22;;;;;;;;;;;18.30;87.70;;;;;;5097191;28;19908;-54
2023/01/11 14:51:57;;;;;;;;;;;18.20;87.90;;;;;;5097262;28;19909;-55
2023/01/11 14:54:37;;;;;;;;;;;18.20;88.00;;;;;;5096783;28;19977;-54
2023/01/11 14:57:02;;;;;;;;;;;18.10;88.00;;;;;;5097551;28;20304;-56
2023/01/11 14:59:34;;;;;;;;;;;18.10;88.20;;;;;;5097131;28;19995;-56